Airfield :
LOGIN :

Register | Disclaimer

   EN    FR    IT 

 










Legend :    VFR   Marginal VFR   IFR   Intensive IFR   Very Intensive IFR
Visi :
Ceiling :
>= 8 km
>= 3000ft
5 to 8 km
1000 to 3000 ft
1500m to 5 km
500 to 1000 ft
800 to 1500m
200 to 500 ft
< 800m
< 200 ft
Symbols :   Thunderstorms  Fog  Heavy snow  Heavy precipitations  Wind > 20 kt
SIGMETs :     Misc.  Thunderstorms  Icing  Turbulence  Mountain Waves  Volcanic Ashes






- Airport Elevation : 755 ft
- IATA code : DRS


EDDC - Dresden Klotzsche

CURRENT METAR :
  • 271850Z 17013KT 9999 -RA BKN045 05/02 Q1007 NOSIG

EXPIRED METARs :
  • 271820Z 16011KT 9999 SCT048 04/02 Q1008 NOSIG
  • 271750Z 15010KT CAVOK 04/02 Q1008 NOSIG
  • 271720Z 15011KT CAVOK 04/01 Q1008 NOSIG
  • 271650Z 15010KT CAVOK 04/01 Q1009 NOSIG
  • 271620Z 16011KT CAVOK 04/01 Q1009 NOSIG
  • 271550Z 16010KT CAVOK 04/01 Q1009 NOSIG

TAF TAF EDDC
Valid from the 27 at 18:00 until the 28 at 18:00 UTC


271700Z 2718/2818 17012G22KT 9999 SCT045
BECMG 2808/2812 24015G30KT
PROB30
TEMPO 2812/2818 25020G35KT 4500 -SHRAGS SCT020CB



MET'MAP, your aeronautical weather chart ! - Copyright ORBIFLY December 2007 - Disclaimer

ORBIFLY MET'MAP TEAM :

Programming & Development : Alexandra Zaïnal
Concept & original design : Baudouin d'Aumeries
Assistance for programming : Marc-Olivier Méhu
Technical & hardware support : Manuel Goepfert

Contact : metmap@orbifly.com




SOURCES & CREDITS :

   NOAA